sensor_id;sensor_type;location;lat;lon;timestamp;P1;durP1;ratioP1;P2;durP2;ratioP2
48823;SDS011;34640;53.590;10.054;2022-12-10T00:01:51;69.33;;;22.43;;
48823;SDS011;34640;53.590;10.054;2022-12-10T00:04:25;60.97;;;22.30;;
48823;SDS011;34640;53.590;10.054;2022-12-10T00:06:58;55.50;;;21.47;;
48823;SDS011;34640;53.590;10.054;2022-12-10T00:09:32;59.77;;;22.93;;
48823;SDS011;34640;53.590;10.054;2022-12-10T00:12:08;51.33;;;19.17;;
48823;SDS011;34640;53.590;10.054;2022-12-10T00:14:41;46.70;;;18.93;;
48823;SDS011;34640;53.590;10.054;2022-12-10T00:17:15;56.17;;;21.85;;
48823;SDS011;34640;53.590;10.054;2022-12-10T00:19:49;57.40;;;21.10;;
48823;SDS011;34640;53.590;10.054;2022-12-10T00:22:22;54.27;;;20.37;;
48823;SDS011;34640;53.590;10.054;2022-12-10T00:24:56;55.47;;;21.70;;
48823;SDS011;34640;53.590;10.054;2022-12-10T00:27:31;51.47;;;20.10;;
48823;SDS011;34640;53.590;10.054;2022-12-10T00:30:05;57.13;;;20.15;;
48823;SDS011;34640;53.590;10.054;2022-12-10T00:32:40;55.83;;;19.33;;
48823;SDS011;34640;53.590;10.054;2022-12-10T00:35:13;56.85;;;20.13;;
48823;SDS011;34640;53.590;10.054;2022-12-10T00:37:47;52.58;;;19.92;;
48823;SDS011;34640;53.590;10.054;2022-12-10T00:40:21;52.70;;;18.20;;
48823;SDS011;34640;53.590;10.054;2022-12-10T00:42:56;50.22;;;19.27;;
48823;SDS011;34640;53.590;10.054;2022-12-10T00:45:30;53.90;;;19.30;;
48823;SDS011;34640;53.590;10.054;2022-12-10T00:48:04;52.37;;;18.53;;
48823;SDS011;34640;53.590;10.054;2022-12-10T00:50:38;48.92;;;17.40;;
48823;SDS011;34640;53.590;10.054;2022-12-10T00:53:11;48.03;;;18.17;;
48823;SDS011;34640;53.590;10.054;2022-12-10T00:55:45;54.50;;;18.70;;
48823;SDS011;34640;53.590;10.054;2022-12-10T00:58:21;48.40;;;18.40;;
48823;SDS011;34640;53.590;10.054;2022-12-10T01:01:04;52.97;;;18.33;;
48823;SDS011;34640;53.590;10.054;2022-12-10T01:03:39;50.20;;;17.70;;
48823;SDS011;34640;53.590;10.054;2022-12-10T01:06:14;50.47;;;18.77;;
48823;SDS011;34640;53.590;10.054;2022-12-10T01:08:49;48.47;;;17.83;;
48823;SDS011;34640;53.590;10.054;2022-12-10T01:11:24;49.00;;;18.17;;
48823;SDS011;34640;53.590;10.054;2022-12-10T01:14:02;53.03;;;18.53;;
48823;SDS011;34640;53.590;10.054;2022-12-10T01:16:37;49.97;;;18.38;;
48823;SDS011;34640;53.590;10.054;2022-12-10T01:19:11;54.57;;;19.10;;
48823;SDS011;34640;53.590;10.054;2022-12-10T01:21:44;48.00;;;16.53;;
48823;SDS011;34640;53.590;10.054;2022-12-10T01:24:18;54.22;;;20.42;;
48823;SDS011;34640;53.590;10.054;2022-12-10T01:26:52;43.80;;;16.58;;
48823;SDS011;34640;53.590;10.054;2022-12-10T01:29:28;46.83;;;17.27;;
48823;SDS011;34640;53.590;10.054;2022-12-10T01:32:02;50.80;;;18.25;;
48823;SDS011;34640;53.590;10.054;2022-12-10T01:34:36;48.77;;;17.30;;
48823;SDS011;34640;53.590;10.054;2022-12-10T01:37:10;44.88;;;17.08;;
48823;SDS011;34640;53.590;10.054;2022-12-10T01:39:44;48.88;;;18.00;;
48823;SDS011;34640;53.590;10.054;2022-12-10T01:42:18;46.77;;;18.00;;
48823;SDS011;34640;53.590;10.054;2022-12-10T01:44:58;46.20;;;17.92;;
48823;SDS011;34640;53.590;10.054;2022-12-10T01:47:40;45.45;;;17.15;;
48823;SDS011;34640;53.590;10.054;2022-12-10T01:50:14;47.80;;;17.23;;
48823;SDS011;34640;53.590;10.054;2022-12-10T01:52:48;43.25;;;16.70;;
48823;SDS011;34640;53.590;10.054;2022-12-10T01:55:37;48.07;;;17.53;;
48823;SDS011;34640;53.590;10.054;2022-12-10T01:58:15;44.07;;;16.33;;
48823;SDS011;34640;53.590;10.054;2022-12-10T02:00:57;44.47;;;17.10;;
48823;SDS011;34640;53.590;10.054;2022-12-10T02:03:41;37.47;;;14.03;;
48823;SDS011;34640;53.590;10.054;2022-12-10T02:06:37;40.07;;;14.23;;
48823;SDS011;34640;53.590;10.054;2022-12-10T02:09:19;37.43;;;13.67;;
48823;SDS011;34640;53.590;10.054;2022-12-10T02:12:01;36.73;;;14.27;;
48823;SDS011;34640;53.590;10.054;2022-12-10T02:14:45;36.63;;;13.43;;
48823;SDS011;34640;53.590;10.054;2022-12-10T02:17:28;36.60;;;14.30;;
48823;SDS011;34640;53.590;10.054;2022-12-10T02:20:10;34.60;;;12.17;;
48823;SDS011;34640;53.590;10.054;2022-12-10T02:22:49;33.38;;;12.20;;
48823;SDS011;34640;53.590;10.054;2022-12-10T02:25:30;33.70;;;14.07;;
48823;SDS011;34640;53.590;10.054;2022-12-10T02:28:10;34.80;;;13.07;;
48823;SDS011;34640;53.590;10.054;2022-12-10T02:30:52;38.13;;;13.60;;
48823;SDS011;34640;53.590;10.054;2022-12-10T02:33:28;34.60;;;13.50;;
48823;SDS011;34640;53.590;10.054;2022-12-10T02:36:04;33.27;;;13.43;;
48823;SDS011;34640;53.590;10.054;2022-12-10T02:38:40;39.13;;;14.83;;
48823;SDS011;34640;53.590;10.054;2022-12-10T02:41:17;32.57;;;12.83;;
48823;SDS011;34640;53.590;10.054;2022-12-10T02:43:57;32.85;;;12.85;;
48823;SDS011;34640;53.590;10.054;2022-12-10T02:46:35;36.35;;;14.13;;
48823;SDS011;34640;53.590;10.054;2022-12-10T02:49:11;35.88;;;14.02;;
48823;SDS011;34640;53.590;10.054;2022-12-10T02:51:47;36.40;;;13.90;;
48823;SDS011;34640;53.590;10.054;2022-12-10T02:57:26;33.00;;;13.52;;
48823;SDS011;34640;53.590;10.054;2022-12-10T03:00:07;36.97;;;14.07;;
48823;SDS011;34640;53.590;10.054;2022-12-10T03:02:57;29.77;;;11.63;;
48823;SDS011;34640;53.590;10.054;2022-12-10T03:05:56;32.50;;;12.95;;
48823;SDS011;34640;53.590;10.054;2022-12-10T03:08:38;34.08;;;13.88;;
48823;SDS011;34640;53.590;10.054;2022-12-10T03:11:15;30.38;;;12.25;;
48823;SDS011;34640;53.590;10.054;2022-12-10T03:13:53;33.88;;;13.82;;
48823;SDS011;34640;53.590;10.054;2022-12-10T03:16:32;40.00;;;14.52;;
48823;SDS011;34640;53.590;10.054;2022-12-10T03:19:12;29.38;;;12.27;;
48823;SDS011;34640;53.590;10.054;2022-12-10T03:21:49;25.85;;;11.55;;
48823;SDS011;34640;53.590;10.054;2022-12-10T03:24:26;27.85;;;11.85;;
48823;SDS011;34640;53.590;10.054;2022-12-10T03:27:00;24.40;;;10.23;;
48823;SDS011;34640;53.590;10.054;2022-12-10T03:29:38;23.52;;;9.95;;
48823;SDS011;34640;53.590;10.054;2022-12-10T03:32:18;26.17;;;10.88;;
48823;SDS011;34640;53.590;10.054;2022-12-10T03:34:56;26.50;;;10.35;;
48823;SDS011;34640;53.590;10.054;2022-12-10T03:37:31;24.20;;;10.90;;
48823;SDS011;34640;53.590;10.054;2022-12-10T03:40:06;25.77;;;11.05;;
48823;SDS011;34640;53.590;10.054;2022-12-10T03:42:43;27.38;;;10.63;;
48823;SDS011;34640;53.590;10.054;2022-12-10T03:45:16;28.27;;;11.52;;
48823;SDS011;34640;53.590;10.054;2022-12-10T03:47:50;26.80;;;11.25;;
48823;SDS011;34640;53.590;10.054;2022-12-10T03:50:25;29.13;;;11.88;;
48823;SDS011;34640;53.590;10.054;2022-12-10T03:52:59;23.50;;;10.48;;
48823;SDS011;34640;53.590;10.054;2022-12-10T03:55:32;24.65;;;11.10;;
48823;SDS011;34640;53.590;10.054;2022-12-10T03:58:06;27.07;;;10.50;;
48823;SDS011;34640;53.590;10.054;2022-12-10T04:00:39;22.37;;;9.60;;
48823;SDS011;34640;53.590;10.054;2022-12-10T04:03:13;23.92;;;11.43;;
48823;SDS011;34640;53.590;10.054;2022-12-10T04:05:48;27.80;;;11.57;;
48823;SDS011;34640;53.590;10.054;2022-12-10T04:08:22;21.52;;;9.18;;
48823;SDS011;34640;53.590;10.054;2022-12-10T04:11:01;23.23;;;9.50;;
48823;SDS011;34640;53.590;10.054;2022-12-10T04:13:36;25.85;;;10.30;;
48823;SDS011;34640;53.590;10.054;2022-12-10T04:16:28;22.43;;;10.37;;
48823;SDS011;34640;53.590;10.054;2022-12-10T04:19:04;26.93;;;12.13;;
48823;SDS011;34640;53.590;10.054;2022-12-10T04:21:41;19.60;;;8.93;;
48823;SDS011;34640;53.590;10.054;2022-12-10T04:24:33;21.83;;;10.05;;
48823;SDS011;34640;53.590;10.054;2022-12-10T04:27:26;21.45;;;8.95;;
48823;SDS011;34640;53.590;10.054;2022-12-10T04:30:02;18.70;;;8.65;;
48823;SDS011;34640;53.590;10.054;2022-12-10T04:32:38;20.35;;;8.35;;
48823;SDS011;34640;53.590;10.054;2022-12-10T04:35:12;26.98;;;10.07;;
48823;SDS011;34640;53.590;10.054;2022-12-10T04:37:46;24.50;;;9.40;;
48823;SDS011;34640;53.590;10.054;2022-12-10T04:40:20;24.77;;;10.33;;
48823;SDS011;34640;53.590;10.054;2022-12-10T04:42:54;22.70;;;10.05;;
48823;SDS011;34640;53.590;10.054;2022-12-10T04:45:27;21.27;;;9.18;;
48823;SDS011;34640;53.590;10.054;2022-12-10T04:48:01;22.25;;;9.50;;
48823;SDS011;34640;53.590;10.054;2022-12-10T04:50:35;22.98;;;9.32;;
48823;SDS011;34640;53.590;10.054;2022-12-10T04:53:10;19.80;;;8.70;;
48823;SDS011;34640;53.590;10.054;2022-12-10T04:55:43;20.45;;;9.65;;
48823;SDS011;34640;53.590;10.054;2022-12-10T04:58:17;18.88;;;8.45;;
48823;SDS011;34640;53.590;10.054;2022-12-10T05:00:51;17.65;;;8.35;;
48823;SDS011;34640;53.590;10.054;2022-12-10T05:03:24;18.95;;;9.35;;
48823;SDS011;34640;53.590;10.054;2022-12-10T05:06:00;19.08;;;8.60;;
48823;SDS011;34640;53.590;10.054;2022-12-10T05:08:36;20.02;;;9.35;;
48823;SDS011;34640;53.590;10.054;2022-12-10T05:11:10;18.87;;;8.70;;
48823;SDS011;34640;53.590;10.054;2022-12-10T05:13:46;19.77;;;8.60;;
48823;SDS011;34640;53.590;10.054;2022-12-10T05:16:20;18.27;;;8.23;;
48823;SDS011;34640;53.590;10.054;2022-12-10T05:18:55;17.43;;;8.27;;
48823;SDS011;34640;53.590;10.054;2022-12-10T05:21:30;19.20;;;7.93;;
48823;SDS011;34640;53.590;10.054;2022-12-10T05:24:19;18.77;;;8.00;;
48823;SDS011;34640;53.590;10.054;2022-12-10T05:26:53;20.50;;;8.53;;
48823;SDS011;34640;53.590;10.054;2022-12-10T05:29:26;17.63;;;8.47;;
48823;SDS011;34640;53.590;10.054;2022-12-10T05:32:00;17.67;;;8.90;;
48823;SDS011;34640;53.590;10.054;2022-12-10T05:34:35;20.00;;;8.70;;
48823;SDS011;34640;53.590;10.054;2022-12-10T05:37:09;19.63;;;9.43;;
48823;SDS011;34640;53.590;10.054;2022-12-10T05:39:44;20.87;;;9.57;;
48823;SDS011;34640;53.590;10.054;2022-12-10T05:42:17;19.97;;;9.67;;
48823;SDS011;34640;53.590;10.054;2022-12-10T05:44:51;19.73;;;9.57;;
48823;SDS011;34640;53.590;10.054;2022-12-10T05:47:25;23.95;;;10.45;;
48823;SDS011;34640;53.590;10.054;2022-12-10T05:49:58;19.58;;;9.50;;
48823;SDS011;34640;53.590;10.054;2022-12-10T05:52:32;20.95;;;9.57;;
48823;SDS011;34640;53.590;10.054;2022-12-10T05:55:08;22.88;;;9.40;;
48823;SDS011;34640;53.590;10.054;2022-12-10T05:57:42;20.23;;;9.13;;
48823;SDS011;34640;53.590;10.054;2022-12-10T06:00:16;19.50;;;9.47;;
48823;SDS011;34640;53.590;10.054;2022-12-10T06:02:50;18.00;;;8.07;;
48823;SDS011;34640;53.590;10.054;2022-12-10T06:05:24;22.85;;;9.68;;
48823;SDS011;34640;53.590;10.054;2022-12-10T06:07:57;23.98;;;10.45;;
48823;SDS011;34640;53.590;10.054;2022-12-10T06:10:33;16.48;;;8.25;;
48823;SDS011;34640;53.590;10.054;2022-12-10T06:13:07;20.17;;;9.48;;
48823;SDS011;34640;53.590;10.054;2022-12-10T06:15:42;18.15;;;9.45;;
48823;SDS011;34640;53.590;10.054;2022-12-10T06:18:16;20.40;;;9.90;;
48823;SDS011;34640;53.590;10.054;2022-12-10T06:20:50;15.52;;;8.07;;
48823;SDS011;34640;53.590;10.054;2022-12-10T06:23:24;20.67;;;8.95;;
48823;SDS011;34640;53.590;10.054;2022-12-10T06:25:58;20.53;;;10.23;;
48823;SDS011;34640;53.590;10.054;2022-12-10T06:28:36;18.08;;;9.60;;
48823;SDS011;34640;53.590;10.054;2022-12-10T06:31:10;18.07;;;8.77;;
48823;SDS011;34640;53.590;10.054;2022-12-10T06:33:44;18.73;;;9.43;;
48823;SDS011;34640;53.590;10.054;2022-12-10T06:36:18;16.17;;;8.57;;
48823;SDS011;34640;53.590;10.054;2022-12-10T06:38:52;18.50;;;9.50;;
48823;SDS011;34640;53.590;10.054;2022-12-10T06:41:27;18.80;;;9.20;;
48823;SDS011;34640;53.590;10.054;2022-12-10T06:44:01;26.47;;;10.63;;
48823;SDS011;34640;53.590;10.054;2022-12-10T06:46:34;24.57;;;10.00;;
48823;SDS011;34640;53.590;10.054;2022-12-10T06:49:08;19.88;;;9.80;;
48823;SDS011;34640;53.590;10.054;2022-12-10T06:51:42;18.80;;;9.57;;
48823;SDS011;34640;53.590;10.054;2022-12-10T06:54:15;20.75;;;10.55;;
48823;SDS011;34640;53.590;10.054;2022-12-10T06:56:50;21.13;;;10.30;;
48823;SDS011;34640;53.590;10.054;2022-12-10T06:59:24;20.13;;;9.77;;
48823;SDS011;34640;53.590;10.054;2022-12-10T07:01:58;19.05;;;10.38;;
48823;SDS011;34640;53.590;10.054;2022-12-10T07:04:32;20.20;;;10.40;;
48823;SDS011;34640;53.590;10.054;2022-12-10T07:07:06;22.63;;;10.43;;
48823;SDS011;34640;53.590;10.054;2022-12-10T07:09:41;23.05;;;11.48;;
48823;SDS011;34640;53.590;10.054;2022-12-10T07:12:16;21.67;;;10.05;;
48823;SDS011;34640;53.590;10.054;2022-12-10T07:14:49;23.13;;;11.63;;
48823;SDS011;34640;53.590;10.054;2022-12-10T07:17:23;18.92;;;10.40;;
48823;SDS011;34640;53.590;10.054;2022-12-10T07:19:57;19.20;;;9.32;;
48823;SDS011;34640;53.590;10.054;2022-12-10T07:22:30;22.10;;;10.50;;
48823;SDS011;34640;53.590;10.054;2022-12-10T07:25:04;24.48;;;11.95;;
48823;SDS011;34640;53.590;10.054;2022-12-10T07:27:40;19.77;;;11.00;;
48823;SDS011;34640;53.590;10.054;2022-12-10T07:30:13;21.63;;;10.80;;
48823;SDS011;34640;53.590;10.054;2022-12-10T07:32:47;18.25;;;8.52;;
48823;SDS011;34640;53.590;10.054;2022-12-10T07:35:21;17.33;;;8.87;;
48823;SDS011;34640;53.590;10.054;2022-12-10T07:37:54;21.23;;;8.18;;
48823;SDS011;34640;53.590;10.054;2022-12-10T07:40:28;17.60;;;8.77;;
48823;SDS011;34640;53.590;10.054;2022-12-10T07:43:03;18.50;;;10.00;;
48823;SDS011;34640;53.590;10.054;2022-12-10T07:45:36;18.43;;;9.53;;
48823;SDS011;34640;53.590;10.054;2022-12-10T07:48:10;17.97;;;8.93;;
48823;SDS011;34640;53.590;10.054;2022-12-10T07:50:44;18.53;;;9.53;;
48823;SDS011;34640;53.590;10.054;2022-12-10T07:53:17;17.80;;;8.93;;
48823;SDS011;34640;53.590;10.054;2022-12-10T07:55:51;16.53;;;7.93;;
48823;SDS011;34640;53.590;10.054;2022-12-10T07:58:26;19.07;;;9.40;;
48823;SDS011;34640;53.590;10.054;2022-12-10T08:01:05;16.77;;;8.90;;
48823;SDS011;34640;53.590;10.054;2022-12-10T08:03:39;15.70;;;7.83;;
48823;SDS011;34640;53.590;10.054;2022-12-10T08:06:14;18.23;;;8.73;;
48823;SDS011;34640;53.590;10.054;2022-12-10T08:08:49;18.40;;;8.50;;
48823;SDS011;34640;53.590;10.054;2022-12-10T08:11:23;18.90;;;8.97;;
48823;SDS011;34640;53.590;10.054;2022-12-10T08:14:00;27.30;;;10.20;;
48823;SDS011;34640;53.590;10.054;2022-12-10T08:16:33;16.20;;;8.50;;
48823;SDS011;34640;53.590;10.054;2022-12-10T08:19:08;16.93;;;8.20;;
48823;SDS011;34640;53.590;10.054;2022-12-10T08:21:47;16.57;;;8.33;;
48823;SDS011;34640;53.590;10.054;2022-12-10T08:24:21;17.20;;;8.53;;
48823;SDS011;34640;53.590;10.054;2022-12-10T08:26:55;16.07;;;8.63;;
48823;SDS011;34640;53.590;10.054;2022-12-10T08:29:30;19.47;;;8.60;;
48823;SDS011;34640;53.590;10.054;2022-12-10T08:32:03;20.97;;;9.77;;
48823;SDS011;34640;53.590;10.054;2022-12-10T08:34:37;19.43;;;8.80;;
48823;SDS011;34640;53.590;10.054;2022-12-10T08:37:11;176.87;;;16.30;;
48823;SDS011;34640;53.590;10.054;2022-12-10T08:39:44;38.20;;;9.60;;
48823;SDS011;34640;53.590;10.054;2022-12-10T08:42:18;19.60;;;8.98;;
48823;SDS011;34640;53.590;10.054;2022-12-10T08:44:53;83.57;;;11.77;;
48823;SDS011;34640;53.590;10.054;2022-12-10T08:47:27;68.30;;;11.70;;
48823;SDS011;34640;53.590;10.054;2022-12-10T08:50:00;20.17;;;8.57;;
48823;SDS011;34640;53.590;10.054;2022-12-10T08:52:34;26.83;;;10.30;;
48823;SDS011;34640;53.590;10.054;2022-12-10T08:55:08;22.23;;;10.30;;
48823;SDS011;34640;53.590;10.054;2022-12-10T08:57:42;15.60;;;7.60;;
48823;SDS011;34640;53.590;10.054;2022-12-10T09:00:17;18.33;;;8.27;;
48823;SDS011;34640;53.590;10.054;2022-12-10T09:02:51;16.47;;;8.37;;
48823;SDS011;34640;53.590;10.054;2022-12-10T09:05:25;15.63;;;7.60;;
48823;SDS011;34640;53.590;10.054;2022-12-10T09:07:59;18.07;;;8.47;;
48823;SDS011;34640;53.590;10.054;2022-12-10T09:10:32;19.10;;;9.10;;
48823;SDS011;34640;53.590;10.054;2022-12-10T09:13:08;18.70;;;8.93;;
48823;SDS011;34640;53.590;10.054;2022-12-10T09:15:50;19.53;;;9.73;;
48823;SDS011;34640;53.590;10.054;2022-12-10T09:18:24;19.53;;;8.90;;
48823;SDS011;34640;53.590;10.054;2022-12-10T09:20:57;19.10;;;8.50;;
48823;SDS011;34640;53.590;10.054;2022-12-10T09:23:31;18.73;;;8.87;;
48823;SDS011;34640;53.590;10.054;2022-12-10T09:26:05;17.50;;;8.50;;
48823;SDS011;34640;53.590;10.054;2022-12-10T09:28:40;20.97;;;8.97;;
48823;SDS011;34640;53.590;10.054;2022-12-10T09:31:17;14.93;;;7.43;;
48823;SDS011;34640;53.590;10.054;2022-12-10T09:33:53;17.40;;;9.02;;
48823;SDS011;34640;53.590;10.054;2022-12-10T09:36:27;17.53;;;8.40;;
48823;SDS011;34640;53.590;10.054;2022-12-10T09:39:05;16.08;;;7.63;;
48823;SDS011;34640;53.590;10.054;2022-12-10T09:41:50;16.20;;;8.00;;
48823;SDS011;34640;53.590;10.054;2022-12-10T09:44:38;16.30;;;7.50;;
48823;SDS011;34640;53.590;10.054;2022-12-10T09:47:20;16.23;;;7.33;;
48823;SDS011;34640;53.590;10.054;2022-12-10T09:50:06;13.97;;;6.70;;
48823;SDS011;34640;53.590;10.054;2022-12-10T09:52:49;13.10;;;6.20;;
48823;SDS011;34640;53.590;10.054;2022-12-10T09:55:28;16.40;;;8.20;;
48823;SDS011;34640;53.590;10.054;2022-12-10T09:58:05;14.43;;;7.23;;
48823;SDS011;34640;53.590;10.054;2022-12-10T10:00:48;11.87;;;6.47;;
48823;SDS011;34640;53.590;10.054;2022-12-10T10:03:26;20.08;;;7.53;;
48823;SDS011;34640;53.590;10.054;2022-12-10T10:06:04;15.13;;;8.00;;
48823;SDS011;34640;53.590;10.054;2022-12-10T10:08:42;12.45;;;6.55;;
48823;SDS011;34640;53.590;10.054;2022-12-10T10:11:19;14.57;;;8.30;;
48823;SDS011;34640;53.590;10.054;2022-12-10T10:13:56;33.65;;;8.00;;
48823;SDS011;34640;53.590;10.054;2022-12-10T10:16:33;16.50;;;7.40;;
48823;SDS011;34640;53.590;10.054;2022-12-10T10:19:13;16.63;;;8.23;;
48823;SDS011;34640;53.590;10.054;2022-12-10T10:21:49;15.70;;;7.15;;
48823;SDS011;34640;53.590;10.054;2022-12-10T10:24:24;15.60;;;6.33;;
48823;SDS011;34640;53.590;10.054;2022-12-10T10:27:04;134.57;;;13.13;;
48823;SDS011;34640;53.590;10.054;2022-12-10T10:29:47;83.97;;;10.73;;
48823;SDS011;34640;53.590;10.054;2022-12-10T10:32:43;97.43;;;9.30;;
48823;SDS011;34640;53.590;10.054;2022-12-10T10:35:29;66.87;;;9.17;;
48823;SDS011;34640;53.590;10.054;2022-12-10T10:38:05;135.20;;;11.43;;
48823;SDS011;34640;53.590;10.054;2022-12-10T10:40:41;43.97;;;8.75;;
48823;SDS011;34640;53.590;10.054;2022-12-10T10:43:19;15.23;;;6.72;;
48823;SDS011;34640;53.590;10.054;2022-12-10T10:45:56;15.90;;;7.47;;
48823;SDS011;34640;53.590;10.054;2022-12-10T10:48:33;10.67;;;5.73;;
48823;SDS011;34640;53.590;10.054;2022-12-10T10:51:12;15.45;;;6.88;;
48823;SDS011;34640;53.590;10.054;2022-12-10T10:53:52;13.82;;;6.82;;
48823;SDS011;34640;53.590;10.054;2022-12-10T10:56:27;14.30;;;7.37;;
48823;SDS011;34640;53.590;10.054;2022-12-10T10:59:06;15.73;;;6.77;;
48823;SDS011;34640;53.590;10.054;2022-12-10T11:01:59;13.13;;;6.93;;
48823;SDS011;34640;53.590;10.054;2022-12-10T11:04:38;15.97;;;7.83;;
48823;SDS011;34640;53.590;10.054;2022-12-10T11:07:22;20.52;;;8.60;;
48823;SDS011;34640;53.590;10.054;2022-12-10T11:09:58;23.90;;;8.87;;
48823;SDS011;34640;53.590;10.054;2022-12-10T11:12:34;16.25;;;7.97;;
48823;SDS011;34640;53.590;10.054;2022-12-10T11:15:30;10.87;;;5.93;;
48823;SDS011;34640;53.590;10.054;2022-12-10T11:18:20;21.45;;;10.60;;
48823;SDS011;34640;53.590;10.054;2022-12-10T11:20:58;16.20;;;7.40;;
48823;SDS011;34640;53.590;10.054;2022-12-10T11:23:38;17.95;;;8.88;;
48823;SDS011;34640;53.590;10.054;2022-12-10T11:29:30;14.82;;;7.95;;
48823;SDS011;34640;53.590;10.054;2022-12-10T11:32:20;15.85;;;7.30;;
48823;SDS011;34640;53.590;10.054;2022-12-10T11:35:07;16.27;;;7.97;;
48823;SDS011;34640;53.590;10.054;2022-12-10T11:37:47;16.27;;;8.70;;
48823;SDS011;34640;53.590;10.054;2022-12-10T11:40:34;16.03;;;7.70;;
48823;SDS011;34640;53.590;10.054;2022-12-10T11:43:26;14.52;;;7.25;;
48823;SDS011;34640;53.590;10.054;2022-12-10T11:46:19;15.52;;;7.10;;
48823;SDS011;34640;53.590;10.054;2022-12-10T11:49:09;14.18;;;8.07;;
48823;SDS011;34640;53.590;10.054;2022-12-10T11:51:53;14.20;;;7.75;;
48823;SDS011;34640;53.590;10.054;2022-12-10T11:54:50;18.48;;;8.52;;
48823;SDS011;34640;53.590;10.054;2022-12-10T11:57:41;13.87;;;7.23;;
48823;SDS011;34640;53.590;10.054;2022-12-10T12:00:20;14.10;;;7.70;;
48823;SDS011;34640;53.590;10.054;2022-12-10T12:03:00;13.83;;;7.60;;
48823;SDS011;34640;53.590;10.054;2022-12-10T12:05:52;17.77;;;7.50;;
48823;SDS011;34640;53.590;10.054;2022-12-10T12:08:43;19.77;;;8.27;;
48823;SDS011;34640;53.590;10.054;2022-12-10T12:11:27;16.40;;;7.68;;
48823;SDS011;34640;53.590;10.054;2022-12-10T12:14:12;16.40;;;7.70;;
48823;SDS011;34640;53.590;10.054;2022-12-10T12:16:54;16.33;;;8.10;;
48823;SDS011;34640;53.590;10.054;2022-12-10T12:19:36;16.27;;;8.40;;
48823;SDS011;34640;53.590;10.054;2022-12-10T12:22:13;14.93;;;8.18;;
48823;SDS011;34640;53.590;10.054;2022-12-10T12:24:48;16.20;;;8.13;;
48823;SDS011;34640;53.590;10.054;2022-12-10T12:27:28;14.32;;;7.55;;
48823;SDS011;34640;53.590;10.054;2022-12-10T12:30:12;16.25;;;7.80;;
48823;SDS011;34640;53.590;10.054;2022-12-10T12:32:52;14.73;;;7.80;;
48823;SDS011;34640;53.590;10.054;2022-12-10T12:35:32;15.57;;;7.60;;
48823;SDS011;34640;53.590;10.054;2022-12-10T12:38:21;13.80;;;6.93;;
48823;SDS011;34640;53.590;10.054;2022-12-10T12:41:02;15.90;;;7.43;;
48823;SDS011;34640;53.590;10.054;2022-12-10T12:46:18;16.70;;;7.40;;
48823;SDS011;34640;53.590;10.054;2022-12-10T12:48:55;14.23;;;7.88;;
48823;SDS011;34640;53.590;10.054;2022-12-10T12:51:34;13.07;;;7.17;;
48823;SDS011;34640;53.590;10.054;2022-12-10T12:54:12;13.57;;;7.55;;
48823;SDS011;34640;53.590;10.054;2022-12-10T12:59:44;14.13;;;7.85;;
48823;SDS011;34640;53.590;10.054;2022-12-10T13:02:42;17.40;;;8.90;;
48823;SDS011;34640;53.590;10.054;2022-12-10T13:05:24;17.33;;;8.63;;
48823;SDS011;34640;53.590;10.054;2022-12-10T13:11:15;13.82;;;7.47;;
48823;SDS011;34640;53.590;10.054;2022-12-10T13:17:22;15.70;;;8.55;;
48823;SDS011;34640;53.590;10.054;2022-12-10T13:23:03;15.30;;;8.05;;
48823;SDS011;34640;53.590;10.054;2022-12-10T13:25:42;16.83;;;8.45;;
48823;SDS011;34640;53.590;10.054;2022-12-10T13:28:31;14.63;;;8.30;;
48823;SDS011;34640;53.590;10.054;2022-12-10T13:31:21;17.60;;;9.27;;
48823;SDS011;34640;53.590;10.054;2022-12-10T13:34:23;17.17;;;9.27;;
48823;SDS011;34640;53.590;10.054;2022-12-10T13:37:15;22.77;;;9.40;;
48823;SDS011;34640;53.590;10.054;2022-12-10T13:40:00;22.58;;;9.25;;
48823;SDS011;34640;53.590;10.054;2022-12-10T13:42:55;16.58;;;8.27;;
48823;SDS011;34640;53.590;10.054;2022-12-10T13:45:48;19.80;;;9.53;;
48823;SDS011;34640;53.590;10.054;2022-12-10T13:48:57;18.77;;;8.93;;
48823;SDS011;34640;53.590;10.054;2022-12-10T13:51:39;19.45;;;9.40;;
48823;SDS011;34640;53.590;10.054;2022-12-10T13:54:31;20.33;;;9.80;;
48823;SDS011;34640;53.590;10.054;2022-12-10T13:57:35;26.20;;;9.50;;
48823;SDS011;34640;53.590;10.054;2022-12-10T14:00:19;19.92;;;8.43;;
48823;SDS011;34640;53.590;10.054;2022-12-10T14:03:02;15.35;;;8.38;;
48823;SDS011;34640;53.590;10.054;2022-12-10T14:05:55;20.27;;;8.95;;
48823;SDS011;34640;53.590;10.054;2022-12-10T14:08:38;18.98;;;10.00;;
48823;SDS011;34640;53.590;10.054;2022-12-10T14:11:17;16.10;;;9.07;;
48823;SDS011;34640;53.590;10.054;2022-12-10T14:13:54;18.67;;;8.87;;
48823;SDS011;34640;53.590;10.054;2022-12-10T14:16:31;16.93;;;8.40;;
48823;SDS011;34640;53.590;10.054;2022-12-10T14:19:11;16.93;;;8.50;;
48823;SDS011;34640;53.590;10.054;2022-12-10T14:21:47;21.60;;;9.67;;
48823;SDS011;34640;53.590;10.054;2022-12-10T14:24:28;98.00;;;12.90;;
48823;SDS011;34640;53.590;10.054;2022-12-10T14:27:09;17.52;;;9.05;;
48823;SDS011;34640;53.590;10.054;2022-12-10T14:29:47;20.43;;;10.13;;
48823;SDS011;34640;53.590;10.054;2022-12-10T14:32:24;22.73;;;10.63;;
48823;SDS011;34640;53.590;10.054;2022-12-10T14:35:04;18.57;;;9.67;;
48823;SDS011;34640;53.590;10.054;2022-12-10T14:37:41;19.60;;;9.45;;
48823;SDS011;34640;53.590;10.054;2022-12-10T14:40:18;20.40;;;9.33;;
48823;SDS011;34640;53.590;10.054;2022-12-10T14:42:55;23.90;;;10.30;;
48823;SDS011;34640;53.590;10.054;2022-12-10T14:45:37;21.10;;;9.20;;
48823;SDS011;34640;53.590;10.054;2022-12-10T14:48:15;20.27;;;9.83;;
48823;SDS011;34640;53.590;10.054;2022-12-10T14:50:51;21.27;;;9.07;;
48823;SDS011;34640;53.590;10.054;2022-12-10T14:53:25;21.53;;;9.73;;
48823;SDS011;34640;53.590;10.054;2022-12-10T14:56:01;17.88;;;8.73;;
48823;SDS011;34640;53.590;10.054;2022-12-10T14:58:38;21.02;;;9.32;;
48823;SDS011;34640;53.590;10.054;2022-12-10T15:01:17;18.97;;;9.70;;
48823;SDS011;34640;53.590;10.054;2022-12-10T15:03:56;18.37;;;9.27;;
48823;SDS011;34640;53.590;10.054;2022-12-10T15:06:35;16.60;;;8.43;;
48823;SDS011;34640;53.590;10.054;2022-12-10T15:09:13;19.90;;;9.70;;
48823;SDS011;34640;53.590;10.054;2022-12-10T15:11:52;21.83;;;11.13;;
48823;SDS011;34640;53.590;10.054;2022-12-10T15:14:27;20.52;;;10.40;;
48823;SDS011;34640;53.590;10.054;2022-12-10T15:17:03;21.08;;;10.63;;
48823;SDS011;34640;53.590;10.054;2022-12-10T15:19:36;19.67;;;10.20;;
48823;SDS011;34640;53.590;10.054;2022-12-10T15:22:18;74.90;;;13.02;;
48823;SDS011;34640;53.590;10.054;2022-12-10T15:24:53;20.52;;;10.25;;
48823;SDS011;34640;53.590;10.054;2022-12-10T15:27:27;21.53;;;10.40;;
48823;SDS011;34640;53.590;10.054;2022-12-10T15:30:20;24.20;;;9.30;;
48823;SDS011;34640;53.590;10.054;2022-12-10T15:32:55;41.87;;;11.27;;
48823;SDS011;34640;53.590;10.054;2022-12-10T15:35:29;219.10;;;18.53;;
48823;SDS011;34640;53.590;10.054;2022-12-10T15:38:04;45.27;;;11.53;;
48823;SDS011;34640;53.590;10.054;2022-12-10T15:40:37;24.23;;;11.80;;